createdAt,value
2023-04-03T00:01:02.018Z,72.30
2023-04-03T00:03:29.116Z,72.30
2023-04-03T00:05:56.475Z,72.20
2023-04-03T00:08:23.428Z,72.10
2023-04-03T00:10:50.483Z,72.00
2023-04-03T00:13:17.620Z,72.00
2023-04-03T00:15:44.989Z,72.00
2023-04-03T00:18:12.211Z,72.00
2023-04-03T00:20:39.381Z,71.90
2023-04-03T00:23:06.821Z,71.90
2023-04-03T00:25:34.277Z,71.70
2023-04-03T00:28:01.276Z,71.80
2023-04-03T00:30:28.332Z,71.60
2023-04-03T00:32:55.309Z,71.20
2023-04-03T00:35:23.023Z,71.30
2023-04-03T00:37:52.062Z,71.50
2023-04-03T00:40:19.772Z,71.70
2023-04-03T00:42:48.112Z,71.80
2023-04-03T00:45:26.486Z,71.70
2023-04-03T00:47:53.515Z,71.70
2023-04-03T00:50:20.595Z,71.60
2023-04-03T00:52:50.153Z,71.50
2023-04-03T00:55:17.665Z,71.40
2023-04-03T00:57:45.597Z,71.40
2023-04-03T01:00:15.800Z,71.40
2023-04-03T01:02:43.184Z,71.30
2023-04-03T01:05:11.106Z,71.30
2023-04-03T01:07:38.840Z,71.20
2023-04-03T01:10:07.816Z,71.20
2023-04-03T01:12:36.331Z,71.00
2023-04-03T01:15:08.080Z,71.20
2023-04-03T01:17:38.095Z,71.20
2023-04-03T01:20:23.830Z,71.00
2023-04-03T01:22:53.550Z,70.80
2023-04-03T01:25:20.527Z,70.80
2023-04-03T01:27:47.521Z,70.60
2023-04-03T01:30:16.108Z,70.50
2023-04-03T01:32:43.419Z,70.30
2023-04-03T01:35:11.208Z,70.30
2023-04-03T01:37:38.199Z,70.20
2023-04-03T01:40:06.739Z,69.90
2023-04-03T01:42:33.769Z,69.90
2023-04-03T01:45:00.825Z,70.10
2023-04-03T01:47:27.769Z,70.10
2023-04-03T01:49:54.759Z,70.10
2023-04-03T01:52:21.829Z,70.30
2023-04-03T01:54:48.745Z,70.50
2023-04-03T01:57:16.312Z,70.60
2023-04-03T01:59:43.342Z,70.60
2023-04-03T02:02:10.719Z,70.50
2023-04-03T02:04:37.679Z,70.40
2023-04-03T02:07:04.708Z,70.20
2023-04-03T02:09:31.620Z,70.10
2023-04-03T02:11:58.607Z,70.00
2023-04-03T02:14:25.716Z,69.90
2023-04-03T02:16:52.745Z,69.70
2023-04-03T02:19:19.691Z,69.60
2023-04-03T02:21:46.657Z,69.50
2023-04-03T02:24:13.613Z,69.40
2023-04-03T02:26:40.562Z,69.30
2023-04-03T02:29:07.476Z,69.30
2023-04-03T02:31:34.481Z,69.20
2023-04-03T02:34:01.455Z,69.00
2023-04-03T02:36:28.489Z,68.90
2023-04-03T02:38:55.963Z,68.80
2023-04-03T02:41:23.162Z,68.70
2023-04-03T02:43:50.156Z,68.60
2023-04-03T02:46:17.212Z,68.50
2023-04-03T02:48:44.205Z,68.50
2023-04-03T02:51:11.291Z,68.40
2023-04-03T02:53:38.265Z,68.40
2023-04-03T02:56:05.246Z,68.30
2023-04-03T02:58:32.112Z,68.20
2023-04-03T03:00:59.018Z,68.20
2023-04-03T03:03:25.932Z,68.10
2023-04-03T03:06:01.948Z,68.10
2023-04-03T03:08:28.827Z,67.90
2023-04-03T03:10:55.898Z,67.70
2023-04-03T03:13:22.837Z,67.70
2023-04-03T03:15:49.743Z,67.60
2023-04-03T03:18:16.657Z,67.50
2023-04-03T03:20:43.574Z,67.50
2023-04-03T03:23:10.570Z,67.40
2023-04-03T03:25:41.332Z,67.30
2023-04-03T03:28:08.421Z,67.20
2023-04-03T03:30:36.431Z,67.10
2023-04-03T03:33:03.491Z,67.00
2023-04-03T03:35:30.545Z,66.90
2023-04-03T03:37:57.587Z,66.80
2023-04-03T03:40:24.603Z,66.80
2023-04-03T03:42:51.799Z,66.80
2023-04-03T03:45:18.679Z,66.80
2023-04-03T03:47:46.684Z,66.90
2023-04-03T03:50:13.694Z,66.80
2023-04-03T03:52:40.853Z,66.50
2023-04-03T03:55:08.774Z,66.60
2023-04-03T03:57:35.723Z,66.70
2023-04-03T04:00:02.685Z,66.50
2023-04-03T04:02:29.718Z,66.40
2023-04-03T04:04:56.701Z,66.60
2023-04-03T04:07:23.762Z,66.50
2023-04-03T04:09:50.738Z,66.50
2023-04-03T04:12:17.615Z,66.60
2023-04-03T04:14:47.738Z,66.80
2023-04-03T04:17:15.478Z,66.80
2023-04-03T04:19:42.490Z,66.80
2023-04-03T04:22:09.458Z,66.70
2023-04-03T04:24:38.398Z,66.80
2023-04-03T04:27:06.322Z,66.50
2023-04-03T04:29:36.866Z,66.50
2023-04-03T04:32:04.249Z,66.40
2023-04-03T04:34:31.509Z,66.30
2023-04-03T04:36:58.577Z,66.30
2023-04-03T04:39:25.781Z,66.50
2023-04-03T04:41:52.832Z,66.70
2023-04-03T04:44:20.131Z,66.60
2023-04-03T04:46:47.017Z,66.70
2023-04-03T04:49:14.098Z,66.60
2023-04-03T04:51:48.864Z,66.60
2023-04-03T04:54:18.977Z,66.70
2023-04-03T04:56:46.063Z,66.70
2023-04-03T04:59:12.977Z,66.60
2023-04-03T05:01:40.022Z,66.40
2023-04-03T05:04:07.300Z,66.50
2023-04-03T05:06:36.342Z,66.50
2023-04-03T05:09:03.525Z,66.20
2023-04-03T05:11:30.462Z,66.20
2023-04-03T05:13:57.376Z,66.20
2023-04-03T05:16:24.370Z,66.20
2023-04-03T05:18:51.359Z,66.00
2023-04-03T05:21:19.477Z,65.80
2023-04-03T05:23:47.698Z,65.60
2023-04-03T05:26:14.615Z,65.50
2023-04-03T05:28:41.618Z,65.50
2023-04-03T05:31:08.615Z,65.60
2023-04-03T05:33:35.565Z,65.80
2023-04-03T05:36:06.174Z,66.00
2023-04-03T05:38:33.522Z,65.80
2023-04-03T05:41:00.691Z,65.80
2023-04-03T05:43:27.581Z,65.70
2023-04-03T05:45:54.610Z,65.70
2023-04-03T05:48:21.791Z,65.70
2023-04-03T05:50:48.947Z,65.90
2023-04-03T05:53:19.136Z,66.00
2023-04-03T05:55:46.201Z,65.90
2023-04-03T05:58:13.406Z,66.00
2023-04-03T06:00:40.380Z,66.10
2023-04-03T06:03:07.827Z,66.00
2023-04-03T06:05:34.889Z,66.30
2023-04-03T06:08:01.880Z,66.30
2023-04-03T06:10:28.756Z,66.30
2023-04-03T06:12:55.822Z,66.30
2023-04-03T06:15:23.196Z,66.30
2023-04-03T06:17:50.242Z,66.40
2023-04-03T06:20:17.355Z,66.20
2023-04-03T06:22:44.278Z,66.30
2023-04-03T06:25:11.433Z,66.20
2023-04-03T06:27:38.402Z,66.10
2023-04-03T06:30:06.414Z,66.10
2023-04-03T06:32:33.497Z,66.10
2023-04-03T06:35:01.385Z,66.20
2023-04-03T06:37:29.962Z,66.20
2023-04-03T06:39:57.079Z,65.90
2023-04-03T06:42:24.201Z,65.80
2023-04-03T06:44:51.286Z,66.00
2023-04-03T06:47:18.811Z,66.00
2023-04-03T06:49:46.071Z,65.80
2023-04-03T06:52:13.350Z,65.70
2023-04-03T06:54:41.662Z,65.70
2023-04-03T06:57:08.828Z,65.70
2023-04-03T06:59:39.486Z,65.40
2023-04-03T07:02:06.478Z,65.40
2023-04-03T07:04:33.507Z,65.30
2023-04-03T07:07:01.182Z,65.20
2023-04-03T07:09:28.191Z,65.20
2023-04-03T07:11:55.181Z,65.10
2023-04-03T07:14:22.380Z,65.00
2023-04-03T07:16:49.476Z,64.80
2023-04-03T07:19:16.450Z,64.50
2023-04-03T07:21:44.599Z,64.40
2023-04-03T07:24:15.091Z,64.30
2023-04-03T07:26:44.070Z,64.30
2023-04-03T07:29:10.951Z,64.10
2023-04-03T07:31:38.006Z,63.90
2023-04-03T07:34:05.049Z,63.80
2023-04-03T07:36:34.461Z,63.70
2023-04-03T07:39:01.413Z,63.70
2023-04-03T07:41:29.905Z,63.60
2023-04-03T07:43:57.762Z,63.40
2023-04-03T07:46:24.843Z,63.40
2023-04-03T07:48:51.895Z,63.40
2023-04-03T07:51:18.938Z,63.20
2023-04-03T07:53:46.229Z,63.10
2023-04-03T07:56:13.238Z,63.10
2023-04-03T07:58:40.166Z,63.00
2023-04-03T08:01:07.338Z,63.00
2023-04-03T08:03:34.395Z,62.90
2023-04-03T08:06:06.137Z,63.00
2023-04-03T08:08:35.044Z,63.00
2023-04-03T08:11:03.769Z,62.90
2023-04-03T08:13:31.972Z,63.10
2023-04-03T08:16:00.235Z,62.90
2023-04-03T08:18:27.929Z,63.00
2023-04-03T08:20:54.833Z,62.80
2023-04-03T08:23:22.180Z,62.90
2023-04-03T08:25:49.103Z,63.20
2023-04-03T08:28:16.191Z,63.60
2023-04-03T08:30:43.713Z,64.20
2023-04-03T08:33:11.735Z,64.60
2023-04-03T08:35:42.659Z,64.60
2023-04-03T08:38:11.489Z,65.20
2023-04-03T08:40:38.761Z,65.30
2023-04-03T08:43:05.815Z,65.30
2023-04-03T08:45:41.914Z,65.70
2023-04-03T08:48:14.329Z,65.80
2023-04-03T08:50:43.019Z,66.30
2023-04-03T08:53:14.992Z,66.80
2023-04-03T08:55:45.124Z,67.10
2023-04-03T08:58:23.124Z,67.40
2023-04-03T09:00:50.118Z,67.50
2023-04-03T09:03:18.607Z,67.50
2023-04-03T09:06:04.265Z,67.40
2023-04-03T09:08:31.407Z,67.60
2023-04-03T09:11:18.072Z,67.70
2023-04-03T09:13:45.006Z,68.00
2023-04-03T09:16:21.512Z,67.80
2023-04-03T09:18:52.280Z,67.80
2023-04-03T09:21:26.125Z,67.80
2023-04-03T09:23:55.277Z,68.10
2023-04-03T09:26:27.425Z,68.30
2023-04-03T09:28:56.003Z,68.20
2023-04-03T09:31:24.387Z,68.30
2023-04-03T09:33:53.801Z,68.30
2023-04-03T09:36:39.561Z,68.00
2023-04-03T09:39:09.213Z,67.60
2023-04-03T09:41:36.435Z,67.40
2023-04-03T09:44:03.495Z,67.10
2023-04-03T09:46:32.596Z,67.20
2023-04-03T09:49:08.951Z,67.10
2023-04-03T09:51:36.945Z,67.00
2023-04-03T09:54:23.790Z,66.90
2023-04-03T09:56:52.210Z,66.90
2023-04-03T09:59:19.240Z,66.80
2023-04-03T10:02:00.184Z,66.70
2023-04-03T10:04:37.534Z,66.20
2023-04-03T10:07:04.931Z,65.80
2023-04-03T10:09:33.738Z,65.90
2023-04-03T10:12:02.612Z,65.40
2023-04-03T10:14:30.684Z,65.60
2023-04-03T10:17:11.318Z,65.10
2023-04-03T10:19:57.430Z,64.80
2023-04-03T10:22:25.634Z,64.40
2023-04-03T10:24:52.652Z,64.30
2023-04-03T10:27:46.163Z,63.60
2023-04-03T10:30:32.112Z,63.10
2023-04-03T10:33:00.910Z,63.10
2023-04-03T10:35:33.726Z,62.60
2023-04-03T10:38:09.847Z,61.90
2023-04-03T10:40:48.720Z,61.30
2023-04-03T10:43:20.180Z,61.40
2023-04-03T10:45:57.349Z,61.40
2023-04-03T10:48:27.406Z,61.30
2023-04-03T10:51:13.049Z,60.90
2023-04-03T10:53:51.437Z,60.20
2023-04-03T10:56:34.047Z,59.80
2023-04-03T10:59:19.287Z,59.30
2023-04-03T11:01:49.654Z,59.10
2023-04-03T11:04:17.494Z,58.80
2023-04-03T11:07:00.166Z,58.80
2023-04-03T11:09:38.366Z,58.70
2023-04-03T11:12:14.113Z,58.30
2023-04-03T11:14:42.063Z,57.80
2023-04-03T11:17:18.162Z,57.80
2023-04-03T11:19:54.034Z,57.60
2023-04-03T11:22:29.376Z,57.20
2023-04-03T11:24:59.900Z,56.90
2023-04-03T11:27:28.595Z,57.50
2023-04-03T11:29:57.009Z,58.30
2023-04-03T11:32:34.487Z,57.50
2023-04-03T11:35:03.130Z,55.90
2023-04-03T11:37:33.807Z,54.90
2023-04-03T11:40:03.989Z,54.20
2023-04-03T11:42:41.473Z,53.10
2023-04-03T11:45:23.528Z,52.80
2023-04-03T11:47:51.987Z,52.00
2023-04-03T11:50:39.282Z,52.20
2023-04-03T11:53:09.722Z,52.70
2023-04-03T11:55:42.857Z,52.40
2023-04-03T11:58:14.587Z,52.30
2023-04-03T12:00:53.827Z,51.40
2023-04-03T12:03:32.760Z,50.80
2023-04-03T12:06:05.853Z,50.30
2023-04-03T12:08:45.674Z,49.80
2023-04-03T12:11:17.733Z,48.30
2023-04-03T12:13:53.936Z,47.40
2023-04-03T12:16:30.314Z,47.00
2023-04-03T12:19:05.078Z,47.00
2023-04-03T12:21:35.115Z,46.80
2023-04-03T12:24:06.484Z,46.90
2023-04-03T12:26:45.905Z,47.10
2023-04-03T12:29:20.755Z,47.20
2023-04-03T12:31:55.886Z,47.50
2023-04-03T12:34:32.213Z,47.80
2023-04-03T12:36:59.096Z,48.40
2023-04-03T12:39:42.721Z,48.90
2023-04-03T12:42:25.122Z,49.00
2023-04-03T12:44:57.371Z,48.80
2023-04-03T12:47:26.897Z,48.60
2023-04-03T12:49:54.372Z,48.40
2023-04-03T12:52:31.518Z,48.70
2023-04-03T12:54:59.690Z,48.10
2023-04-03T12:57:27.798Z,48.20
2023-04-03T12:59:55.114Z,48.20
2023-04-03T13:02:24.961Z,48.30
2023-04-03T13:04:53.264Z,48.30
2023-04-03T13:07:26.736Z,47.70
2023-04-03T13:09:57.602Z,47.70
2023-04-03T13:12:24.778Z,47.20
2023-04-03T13:14:59.437Z,46.90
2023-04-03T13:17:26.814Z,47.30
2023-04-03T13:19:54.567Z,47.40
2023-04-03T13:22:40.545Z,47.50
2023-04-03T13:25:09.050Z,47.70
2023-04-03T13:27:36.448Z,47.90
2023-04-03T13:30:04.185Z,47.90
2023-04-03T13:32:32.887Z,47.80
2023-04-03T13:35:11.656Z,47.80
2023-04-03T13:37:55.574Z,47.90
2023-04-03T13:40:22.630Z,48.10
2023-04-03T13:42:59.066Z,48.10
2023-04-03T13:45:30.695Z,47.60
2023-04-03T13:48:30.740Z,47.30
2023-04-03T13:51:02.713Z,47.10
2023-04-03T13:53:31.657Z,47.40
2023-04-03T13:55:58.712Z,47.40
2023-04-03T13:58:27.251Z,47.60
2023-04-03T14:01:05.288Z,47.80
2023-04-03T14:03:34.043Z,47.50
2023-04-03T14:06:02.283Z,46.90
2023-04-03T14:08:41.733Z,46.50
2023-04-03T14:11:29.896Z,46.20
2023-04-03T14:14:02.259Z,46.20
2023-04-03T14:16:31.924Z,46.80
2023-04-03T14:18:59.313Z,46.60
2023-04-03T14:21:27.272Z,46.70
2023-04-03T14:23:54.287Z,46.90
2023-04-03T14:26:23.120Z,46.90
2023-04-03T14:28:52.741Z,47.10
2023-04-03T14:31:23.520Z,46.90
2023-04-03T14:33:51.000Z,46.00
2023-04-03T14:36:19.670Z,45.80
2023-04-03T14:38:47.804Z,45.10
2023-04-03T14:41:17.194Z,44.90
2023-04-03T14:43:45.167Z,45.10
2023-04-03T14:46:16.939Z,45.30
2023-04-03T14:48:44.256Z,45.40
2023-04-03T14:51:12.460Z,45.10
2023-04-03T14:53:40.257Z,44.90
2023-04-03T14:56:28.385Z,44.90
2023-04-03T14:58:58.068Z,44.70
2023-04-03T15:01:27.921Z,45.00
2023-04-03T15:03:55.459Z,45.20
2023-04-03T15:06:23.406Z,45.10
2023-04-03T15:08:50.806Z,44.70
2023-04-03T15:11:17.820Z,44.50
2023-04-03T15:13:45.777Z,44.90
2023-04-03T15:16:19.830Z,45.40
2023-04-03T15:18:47.206Z,45.50
2023-04-03T15:21:14.261Z,45.50
2023-04-03T15:23:41.182Z,45.70
2023-04-03T15:26:08.189Z,45.30
2023-04-03T15:28:42.790Z,45.00
2023-04-03T15:31:09.937Z,45.00
2023-04-03T15:33:37.485Z,44.70
2023-04-03T15:36:11.863Z,44.50
2023-04-03T15:38:44.546Z,44.20
2023-04-03T15:41:11.615Z,44.30
2023-04-03T15:43:38.517Z,44.30
2023-04-03T15:46:06.069Z,44.60
2023-04-03T15:48:33.219Z,44.70
2023-04-03T15:51:01.094Z,44.90
2023-04-03T15:53:27.992Z,45.00
2023-04-03T15:55:54.886Z,45.20
2023-04-03T15:58:22.028Z,45.30
2023-04-03T16:00:49.155Z,45.50
2023-04-03T16:03:17.662Z,45.60
2023-04-03T16:05:44.652Z,45.60
2023-04-03T16:08:11.810Z,45.70
2023-04-03T16:10:39.546Z,45.60
2023-04-03T16:13:06.843Z,45.50
2023-04-03T16:15:34.337Z,45.50
2023-04-03T16:18:01.718Z,45.60
2023-04-03T16:20:28.826Z,45.40
2023-04-03T16:22:57.261Z,45.20
2023-04-03T16:25:24.171Z,45.40
2023-04-03T16:27:51.080Z,46.00
2023-04-03T16:30:18.024Z,46.70
2023-04-03T16:32:45.141Z,46.80
2023-04-03T16:35:12.445Z,47.20
2023-04-03T16:37:40.656Z,47.70
2023-04-03T16:40:08.493Z,48.00
2023-04-03T16:42:37.379Z,48.30
2023-04-03T16:45:07.011Z,48.50
2023-04-03T16:47:34.309Z,48.70
2023-04-03T16:50:01.465Z,48.70
2023-04-03T16:52:28.763Z,48.90
2023-04-03T16:54:56.790Z,49.10
2023-04-03T16:57:26.061Z,49.10
2023-04-03T16:59:53.753Z,49.20
2023-04-03T17:02:21.498Z,49.20
2023-04-03T17:04:50.098Z,49.30
2023-04-03T17:07:19.050Z,49.40
2023-04-03T17:09:45.912Z,49.60
2023-04-03T17:12:12.904Z,49.60
2023-04-03T17:14:39.868Z,49.90
2023-04-03T17:17:07.269Z,50.10
2023-04-03T17:19:34.607Z,50.20
2023-04-03T17:22:01.799Z,50.30
2023-04-03T17:24:30.893Z,50.40
2023-04-03T17:26:57.787Z,50.40
2023-04-03T17:29:24.755Z,50.40
2023-04-03T17:31:51.965Z,50.30
2023-04-03T17:34:19.166Z,50.00
2023-04-03T17:36:46.535Z,49.90
2023-04-03T17:39:13.689Z,49.70
2023-04-03T17:41:40.928Z,49.30
2023-04-03T17:44:07.895Z,49.00
2023-04-03T17:46:35.574Z,48.70
2023-04-03T17:49:03.645Z,48.50
2023-04-03T17:51:35.678Z,48.20
2023-04-03T17:54:02.855Z,48.00
2023-04-03T17:56:29.816Z,47.80
2023-04-03T17:58:58.492Z,47.50
2023-04-03T18:01:28.189Z,47.20
2023-04-03T18:03:56.474Z,47.00
2023-04-03T18:06:26.667Z,46.90
2023-04-03T18:08:56.804Z,46.70
2023-04-03T18:11:30.419Z,46.50
2023-04-03T18:14:00.266Z,46.50
2023-04-03T18:16:28.864Z,46.30
2023-04-03T18:19:06.829Z,46.00
2023-04-03T18:21:43.348Z,45.90
2023-04-03T18:24:14.360Z,45.80
2023-04-03T18:26:43.582Z,45.70
2023-04-03T18:29:11.917Z,45.70
2023-04-03T18:31:40.737Z,45.60
2023-04-03T18:34:07.829Z,45.70
2023-04-03T18:36:34.822Z,45.90
2023-04-03T18:39:01.901Z,46.10
2023-04-03T18:41:32.761Z,46.20
2023-04-03T18:44:02.140Z,46.20
2023-04-03T18:46:29.461Z,46.20
2023-04-03T18:48:59.473Z,46.60
2023-04-03T18:51:26.844Z,46.80
2023-04-03T18:53:53.775Z,47.20
2023-04-03T18:56:22.402Z,47.40
2023-04-03T18:58:49.562Z,47.80
2023-04-03T19:01:17.028Z,48.00
2023-04-03T19:03:44.262Z,48.20
2023-04-03T19:06:11.392Z,48.30
2023-04-03T19:08:41.953Z,48.40
2023-04-03T19:11:08.966Z,48.60
2023-04-03T19:13:38.972Z,48.90
2023-04-03T19:16:09.661Z,49.00
2023-04-03T19:18:36.878Z,49.30
2023-04-03T19:21:04.720Z,49.60
2023-04-03T19:23:31.759Z,49.70
2023-04-03T19:26:02.070Z,49.90
2023-04-03T19:28:29.070Z,50.00
2023-04-03T19:30:58.005Z,50.00
2023-04-03T19:33:25.644Z,50.10
2023-04-03T19:35:53.381Z,50.10
2023-04-03T19:38:22.091Z,50.20
2023-04-03T19:40:49.135Z,50.40
2023-04-03T19:43:16.951Z,50.70
2023-04-03T19:45:46.182Z,50.80
2023-04-03T19:48:13.543Z,50.80
2023-04-03T19:50:41.114Z,50.80
2023-04-03T19:53:18.995Z,50.90
2023-04-03T19:55:46.791Z,51.10
2023-04-03T19:58:13.866Z,51.10
2023-04-03T20:00:43.712Z,51.20
2023-04-03T20:03:13.403Z,51.30
2023-04-03T20:05:40.642Z,51.40
2023-04-03T20:08:07.639Z,51.30
2023-04-03T20:10:35.811Z,51.30
2023-04-03T20:13:04.645Z,51.50
2023-04-03T20:15:40.432Z,51.70
2023-04-03T20:18:29.075Z,51.80
2023-04-03T20:20:57.238Z,51.80
2023-04-03T20:23:24.316Z,51.70
2023-04-03T20:26:02.005Z,51.80
2023-04-03T20:28:34.159Z,52.00
2023-04-03T20:31:02.735Z,52.10
2023-04-03T20:33:30.194Z,52.10
2023-04-03T20:35:58.259Z,52.40
2023-04-03T20:38:25.510Z,52.40
2023-04-03T20:40:52.794Z,52.40
2023-04-03T20:43:23.990Z,52.30
2023-04-03T20:45:51.573Z,52.30
2023-04-03T20:48:19.530Z,52.50
2023-04-03T20:50:46.881Z,52.50
2023-04-03T20:53:15.215Z,52.50
2023-04-03T20:55:42.573Z,52.60
2023-04-03T20:58:10.455Z,52.50
2023-04-03T21:00:38.392Z,52.70
2023-04-03T21:03:06.286Z,52.70
2023-04-03T21:05:34.814Z,52.80
2023-04-03T21:08:20.559Z,52.70
2023-04-03T21:11:06.197Z,52.70
2023-04-03T21:13:52.097Z,52.60
2023-04-03T21:16:20.290Z,52.70
2023-04-03T21:18:50.172Z,52.30
2023-04-03T21:21:17.882Z,52.30
2023-04-03T21:23:45.446Z,52.20
2023-04-03T21:26:12.414Z,52.10
2023-04-03T21:28:39.337Z,51.90
2023-04-03T21:31:06.588Z,51.70
2023-04-03T21:33:33.544Z,51.60
2023-04-03T21:36:00.530Z,51.50
2023-04-03T21:38:27.698Z,51.30
2023-04-03T21:41:01.131Z,51.20
2023-04-03T21:43:28.292Z,51.20
2023-04-03T21:45:56.425Z,51.20
2023-04-03T21:48:24.619Z,51.10
2023-04-03T21:50:54.607Z,50.70
2023-04-03T21:53:22.862Z,50.50
2023-04-03T21:55:53.702Z,50.10
2023-04-03T21:58:20.935Z,49.90
2023-04-03T22:00:48.034Z,49.80
2023-04-03T22:03:21.594Z,49.80
2023-04-03T22:05:48.540Z,49.70
2023-04-03T22:08:15.807Z,49.50
2023-04-03T22:10:42.860Z,49.20
2023-04-03T22:13:09.898Z,49.10
2023-04-03T22:15:43.012Z,49.10
2023-04-03T22:18:10.796Z,49.20
2023-04-03T22:20:38.089Z,49.30
2023-04-03T22:23:06.448Z,49.40
2023-04-03T22:25:33.913Z,49.40
2023-04-03T22:28:00.893Z,49.50
2023-04-03T22:30:28.085Z,49.50
2023-04-03T22:32:55.131Z,49.50
2023-04-03T22:35:24.163Z,49.40
2023-04-03T22:37:51.439Z,49.10
2023-04-03T22:40:18.722Z,49.00
2023-04-03T22:42:49.203Z,48.90
2023-04-03T22:45:16.647Z,49.00
2023-04-03T22:47:43.609Z,48.70
2023-04-03T22:50:11.415Z,48.50
2023-04-03T22:52:38.391Z,48.00
2023-04-03T22:55:18.184Z,47.70
2023-04-03T22:57:46.895Z,47.70
2023-04-03T23:00:14.462Z,47.70
2023-04-03T23:02:42.138Z,47.60
2023-04-03T23:05:09.451Z,47.40
2023-04-03T23:07:36.604Z,47.30
2023-04-03T23:10:04.824Z,47.40
2023-04-03T23:12:36.888Z,47.50
2023-04-03T23:15:05.271Z,47.50
2023-04-03T23:17:32.851Z,47.60
2023-04-03T23:19:59.777Z,47.60
2023-04-03T23:22:27.603Z,47.60
2023-04-03T23:24:54.575Z,47.50
2023-04-03T23:27:21.516Z,47.60
2023-04-03T23:29:49.058Z,47.70
2023-04-03T23:32:16.034Z,47.60
2023-04-03T23:34:43.051Z,47.70
2023-04-03T23:37:13.083Z,48.10
2023-04-03T23:39:40.159Z,48.00
2023-04-03T23:42:09.501Z,48.00
2023-04-03T23:44:36.515Z,48.10
2023-04-03T23:47:03.464Z,48.20
2023-04-03T23:49:30.478Z,48.30
2023-04-03T23:51:57.767Z,48.30
2023-04-03T23:54:24.737Z,48.40
2023-04-03T23:56:51.867Z,48.40
2023-04-03T23:59:18.895Z,48.50
